sensor_id;sensor_type;location;lat;lon;timestamp;pressure;altitude;pressure_sealevel;temperature;humidity
8894;BME280;4483;48.622;9.230;2023-03-04T00:00:07;98424.28;;;0.98;82.71
8894;BME280;4483;48.622;9.230;2023-03-04T00:02:34;98440.38;;;0.98;82.54
8894;BME280;4483;48.622;9.230;2023-03-04T00:05:00;98432.75;;;0.97;82.62
8894;BME280;4483;48.622;9.230;2023-03-04T00:07:28;98423.44;;;0.94;83.03
8894;BME280;4483;48.622;9.230;2023-03-04T00:09:56;98428.44;;;0.88;83.03
8894;BME280;4483;48.622;9.230;2023-03-04T00:12:22;98431.84;;;0.87;82.51
8894;BME280;4483;48.622;9.230;2023-03-04T00:14:49;98444.53;;;0.87;83.61
8894;BME280;4483;48.622;9.230;2023-03-04T00:17:16;98440.25;;;0.83;83.54
8894;BME280;4483;48.622;9.230;2023-03-04T00:19:42;98439.41;;;0.81;83.41
8894;BME280;4483;48.622;9.230;2023-03-04T00:22:09;98436.84;;;0.80;83.49
8894;BME280;4483;48.622;9.230;2023-03-04T00:24:35;98433.47;;;0.79;83.22
8894;BME280;4483;48.622;9.230;2023-03-04T00:27:03;98441.88;;;0.75;83.63
8894;BME280;4483;48.622;9.230;2023-03-04T00:29:30;98428.34;;;0.73;83.25
8894;BME280;4483;48.622;9.230;2023-03-04T00:31:57;98427.50;;;0.71;83.62
8894;BME280;4483;48.622;9.230;2023-03-04T00:34:24;98424.94;;;0.68;83.74
8894;BME280;4483;48.622;9.230;2023-03-04T00:36:50;98428.31;;;0.67;84.00
8894;BME280;4483;48.622;9.230;2023-03-04T00:39:17;98430.00;;;0.68;84.05
8894;BME280;4483;48.622;9.230;2023-03-04T00:41:43;98425.78;;;0.69;84.38
8894;BME280;4483;48.622;9.230;2023-03-04T00:44:11;98430.00;;;0.68;84.45
8894;BME280;4483;48.622;9.230;2023-03-04T00:46:38;98423.25;;;0.67;84.17
8894;BME280;4483;48.622;9.230;2023-03-04T00:49:05;98425.75;;;0.64;83.65
8894;BME280;4483;48.622;9.230;2023-03-04T00:51:32;98424.91;;;0.64;83.78
8894;BME280;4483;48.622;9.230;2023-03-04T00:53:59;98431.66;;;0.63;84.14
8894;BME280;4483;48.622;9.230;2023-03-04T00:56:26;98419.81;;;0.62;83.86
8894;BME280;4483;48.622;9.230;2023-03-04T00:58:52;98423.19;;;0.61;84.44
8894;BME280;4483;48.622;9.230;2023-03-04T01:01:20;98428.25;;;0.61;84.56
8894;BME280;4483;48.622;9.230;2023-03-04T01:03:47;98429.06;;;0.59;84.61
8894;BME280;4483;48.622;9.230;2023-03-04T01:06:13;98429.06;;;0.57;84.13
8894;BME280;4483;48.622;9.230;2023-03-04T01:08:40;98422.31;;;0.55;84.27
8894;BME280;4483;48.622;9.230;2023-03-04T01:11:07;98426.53;;;0.56;84.71
8894;BME280;4483;48.622;9.230;2023-03-04T01:13:34;98415.50;;;0.52;84.60
8894;BME280;4483;48.622;9.230;2023-03-04T01:16:00;98422.25;;;0.50;84.60
8894;BME280;4483;48.622;9.230;2023-03-04T01:18:29;98423.91;;;0.48;84.92
8894;BME280;4483;48.622;9.230;2023-03-04T01:20:56;98418.00;;;0.46;85.28
8894;BME280;4483;48.622;9.230;2023-03-04T01:23:23;98417.13;;;0.44;84.56
8894;BME280;4483;48.622;9.230;2023-03-04T01:25:49;98424.72;;;0.41;84.86
8894;BME280;4483;48.622;9.230;2023-03-04T01:28:16;98409.50;;;0.38;84.64
8894;BME280;4483;48.622;9.230;2023-03-04T01:30:43;98407.78;;;0.37;85.05
8894;BME280;4483;48.622;9.230;2023-03-04T01:33:09;98408.59;;;0.33;85.14
8894;BME280;4483;48.622;9.230;2023-03-04T01:35:37;98415.28;;;0.27;84.94
8894;BME280;4483;48.622;9.230;2023-03-04T01:38:04;98417.78;;;0.22;85.43
8894;BME280;4483;48.622;9.230;2023-03-04T01:40:31;98416.09;;;0.23;85.19
8894;BME280;4483;48.622;9.230;2023-03-04T01:42:58;98416.09;;;0.21;85.46
8894;BME280;4483;48.622;9.230;2023-03-04T01:45:25;98412.69;;;0.19;85.63
8894;BME280;4483;48.622;9.230;2023-03-04T01:47:51;98407.63;;;0.18;85.75
8894;BME280;4483;48.622;9.230;2023-03-04T01:50:30;98403.34;;;0.15;85.98
8894;BME280;4483;48.622;9.230;2023-03-04T01:52:59;98405.94;;;0.18;85.67
8894;BME280;4483;48.622;9.230;2023-03-04T01:55:26;98409.28;;;0.19;86.17
8894;BME280;4483;48.622;9.230;2023-03-04T01:57:54;98407.63;;;0.19;86.08
8894;BME280;4483;48.622;9.230;2023-03-04T02:00:25;98400.88;;;0.18;86.03
8894;BME280;4483;48.622;9.230;2023-03-04T02:02:54;98400.81;;;0.17;85.45
8894;BME280;4483;48.622;9.230;2023-03-04T02:05:23;98401.63;;;0.11;86.38
8894;BME280;4483;48.622;9.230;2023-03-04T02:07:51;98405.84;;;0.09;85.89
8894;BME280;4483;48.622;9.230;2023-03-04T02:10:20;98400.75;;;0.06;86.05
8894;BME280;4483;48.622;9.230;2023-03-04T02:12:47;98395.66;;;0.03;86.35
8894;BME280;4483;48.622;9.230;2023-03-04T02:15:14;98397.34;;;0.04;86.30
8894;BME280;4483;48.622;9.230;2023-03-04T02:17:40;98388.03;;;0.00;86.09
8894;BME280;4483;48.622;9.230;2023-03-04T02:20:16;98397.31;;;0.01;86.53
8894;BME280;4483;48.622;9.230;2023-03-04T02:22:51;98396.44;;;-0.03;86.21
8894;BME280;4483;48.622;9.230;2023-03-04T02:25:27;98386.31;;;-0.03;86.45
8894;BME280;4483;48.622;9.230;2023-03-04T02:27:57;98390.50;;;-0.05;85.97
8894;BME280;4483;48.622;9.230;2023-03-04T02:30:24;98386.31;;;-0.03;86.32
8894;BME280;4483;48.622;9.230;2023-03-04T02:32:51;98385.47;;;-0.02;87.05
8894;BME280;4483;48.622;9.230;2023-03-04T02:35:19;98390.53;;;-0.02;86.58
8894;BME280;4483;48.622;9.230;2023-03-04T02:37:46;98390.53;;;-0.02;86.77
8894;BME280;4483;48.622;9.230;2023-03-04T02:40:15;98399.84;;;-0.02;86.94
8894;BME280;4483;48.622;9.230;2023-03-04T02:42:44;98396.44;;;-0.06;86.58
8894;BME280;4483;48.622;9.230;2023-03-04T02:45:34;98409.88;;;-0.10;86.22
8894;BME280;4483;48.622;9.230;2023-03-04T02:48:02;98398.88;;;-0.13;86.66
8894;BME280;4483;48.622;9.230;2023-03-04T02:50:33;98400.53;;;-0.15;87.30
8894;BME280;4483;48.622;9.230;2023-03-04T02:53:01;98412.34;;;-0.17;87.14
8894;BME280;4483;48.622;9.230;2023-03-04T02:55:28;98405.59;;;-0.17;86.83
8894;BME280;4483;48.622;9.230;2023-03-04T02:57:54;98402.22;;;-0.16;87.00
8894;BME280;4483;48.622;9.230;2023-03-04T03:00:21;98402.22;;;-0.17;87.20
8894;BME280;4483;48.622;9.230;2023-03-04T03:02:49;98401.34;;;-0.18;86.99
8894;BME280;4483;48.622;9.230;2023-03-04T03:05:16;98399.69;;;-0.17;87.10
8894;BME280;4483;48.622;9.230;2023-03-04T03:07:43;98393.75;;;-0.18;87.05
8894;BME280;4483;48.622;9.230;2023-03-04T03:10:11;98403.88;;;-0.19;87.33
8894;BME280;4483;48.622;9.230;2023-03-04T03:12:38;98405.53;;;-0.21;87.04
8894;BME280;4483;48.622;9.230;2023-03-04T03:15:05;98402.97;;;-0.24;87.36
8894;BME280;4483;48.622;9.230;2023-03-04T03:17:32;98404.66;;;-0.26;86.99
8894;BME280;4483;48.622;9.230;2023-03-04T03:20:00;98402.06;;;-0.29;87.04
8894;BME280;4483;48.622;9.230;2023-03-04T03:22:27;98400.34;;;-0.33;87.16
8894;BME280;4483;48.622;9.230;2023-03-04T03:24:54;98391.88;;;-0.35;87.31
8894;BME280;4483;48.622;9.230;2023-03-04T03:27:20;98400.28;;;-0.36;87.26
8894;BME280;4483;48.622;9.230;2023-03-04T03:29:47;98404.50;;;-0.38;87.19
8894;BME280;4483;48.622;9.230;2023-03-04T03:32:13;98399.41;;;-0.40;87.55
8894;BME280;4483;48.622;9.230;2023-03-04T03:34:40;98401.91;;;-0.44;87.01
8894;BME280;4483;48.622;9.230;2023-03-04T03:37:08;98406.91;;;-0.47;87.45
8894;BME280;4483;48.622;9.230;2023-03-04T03:39:35;98395.09;;;-0.50;87.68
8894;BME280;4483;48.622;9.230;2023-03-04T03:42:01;98397.59;;;-0.51;87.30
8894;BME280;4483;48.622;9.230;2023-03-04T03:44:28;98396.69;;;-0.56;87.52
8894;BME280;4483;48.622;9.230;2023-03-04T03:46:54;98395.81;;;-0.60;87.54
8894;BME280;4483;48.622;9.230;2023-03-04T03:49:21;98395.78;;;-0.61;87.83
8894;BME280;4483;48.622;9.230;2023-03-04T03:51:48;98400.84;;;-0.64;87.92
8894;BME280;4483;48.622;9.230;2023-03-04T03:54:16;98402.47;;;-0.68;87.94
8894;BME280;4483;48.622;9.230;2023-03-04T03:56:42;98402.44;;;-0.69;88.10
8894;BME280;4483;48.622;9.230;2023-03-04T03:59:09;98399.03;;;-0.71;88.04
8894;BME280;4483;48.622;9.230;2023-03-04T04:01:35;98403.25;;;-0.73;87.88
8894;BME280;4483;48.622;9.230;2023-03-04T04:04:02;98400.69;;;-0.75;87.97
8894;BME280;4483;48.622;9.230;2023-03-04T04:06:29;98404.06;;;-0.76;88.26
8894;BME280;4483;48.622;9.230;2023-03-04T04:08:55;98405.72;;;-0.76;88.24
8894;BME280;4483;48.622;9.230;2023-03-04T04:11:23;98408.25;;;-0.78;88.20
8894;BME280;4483;48.622;9.230;2023-03-04T04:13:50;98406.50;;;-0.80;87.71
8894;BME280;4483;48.622;9.230;2023-03-04T04:16:16;98407.34;;;-0.83;88.06
8894;BME280;4483;48.622;9.230;2023-03-04T04:18:43;98406.47;;;-0.85;88.05
8894;BME280;4483;48.622;9.230;2023-03-04T04:21:09;98405.59;;;-0.87;87.97
8894;BME280;4483;48.622;9.230;2023-03-04T04:23:36;98392.94;;;-0.88;87.98
8894;BME280;4483;48.622;9.230;2023-03-04T04:26:03;98394.59;;;-0.90;87.81
8894;BME280;4483;48.622;9.230;2023-03-04T04:28:32;98397.91;;;-0.94;87.96
8894;BME280;4483;48.622;9.230;2023-03-04T04:30:58;98397.00;;;-0.98;88.00
8894;BME280;4483;48.622;9.230;2023-03-04T04:33:25;98396.97;;;-1.01;88.14
8894;BME280;4483;48.622;9.230;2023-03-04T04:35:52;98391.94;;;-1.01;88.56
8894;BME280;4483;48.622;9.230;2023-03-04T04:38:18;98401.19;;;-1.02;88.36
8894;BME280;4483;48.622;9.230;2023-03-04T04:40:45;98404.53;;;-1.03;87.88
8894;BME280;4483;48.622;9.230;2023-03-04T04:43:11;98397.75;;;-1.05;88.26
8894;BME280;4483;48.622;9.230;2023-03-04T04:45:40;98402.81;;;-1.07;87.93
8894;BME280;4483;48.622;9.230;2023-03-04T04:48:06;98405.28;;;-1.10;88.34
8894;BME280;4483;48.622;9.230;2023-03-04T04:50:33;98402.72;;;-1.13;88.01
8894;BME280;4483;48.622;9.230;2023-03-04T04:53:00;98406.09;;;-1.14;87.70
8894;BME280;4483;48.622;9.230;2023-03-04T04:55:26;98409.38;;;-1.18;88.25
8894;BME280;4483;48.622;9.230;2023-03-04T04:57:53;98404.28;;;-1.21;88.07
8894;BME280;4483;48.622;9.230;2023-03-04T05:00:20;98413.50;;;-1.24;88.06
8894;BME280;4483;48.622;9.230;2023-03-04T05:02:48;98414.31;;;-1.27;88.51
8894;BME280;4483;48.622;9.230;2023-03-04T05:05:15;98414.25;;;-1.28;88.44
8894;BME280;4483;48.622;9.230;2023-03-04T05:07:41;98416.78;;;-1.30;88.66
8894;BME280;4483;48.622;9.230;2023-03-04T05:10:09;98412.53;;;-1.32;88.76
8894;BME280;4483;48.622;9.230;2023-03-04T05:12:36;98409.16;;;-1.34;88.63
8894;BME280;4483;48.622;9.230;2023-03-04T05:15:03;98416.72;;;-1.36;87.96
8894;BME280;4483;48.622;9.230;2023-03-04T05:17:30;98413.31;;;-1.38;88.30
8894;BME280;4483;48.622;9.230;2023-03-04T05:19:57;98403.19;;;-1.38;88.81
8894;BME280;4483;48.622;9.230;2023-03-04T05:22:24;98413.28;;;-1.39;88.27
8894;BME280;4483;48.622;9.230;2023-03-04T05:24:51;98404.81;;;-1.41;88.32
8894;BME280;4483;48.622;9.230;2023-03-04T05:27:17;98413.22;;;-1.42;88.11
8894;BME280;4483;48.622;9.230;2023-03-04T05:29:44;98417.38;;;-1.46;88.21
8894;BME280;4483;48.622;9.230;2023-03-04T05:32:11;98409.78;;;-1.47;88.18
8894;BME280;4483;48.622;9.230;2023-03-04T05:34:37;98411.44;;;-1.48;88.23
8894;BME280;4483;48.622;9.230;2023-03-04T05:37:05;98413.09;;;-1.50;88.39
8894;BME280;4483;48.622;9.230;2023-03-04T05:39:32;98419.00;;;-1.51;88.20
8894;BME280;4483;48.622;9.230;2023-03-04T05:41:59;98415.59;;;-1.53;88.14
8894;BME280;4483;48.622;9.230;2023-03-04T05:44:25;98413.88;;;-1.54;87.80
8894;BME280;4483;48.622;9.230;2023-03-04T05:46:52;98420.53;;;-1.59;87.91
8894;BME280;4483;48.622;9.230;2023-03-04T05:49:19;98421.38;;;-1.60;88.51
8894;BME280;4483;48.622;9.230;2023-03-04T05:51:45;98423.03;;;-1.62;87.81
8894;BME280;4483;48.622;9.230;2023-03-04T05:54:13;98423.00;;;-1.63;88.33
8894;BME280;4483;48.622;9.230;2023-03-04T05:56:40;98424.66;;;-1.64;88.60
8894;BME280;4483;48.622;9.230;2023-03-04T05:59:07;98425.50;;;-1.65;88.13
8894;BME280;4483;48.622;9.230;2023-03-04T06:01:34;98428.84;;;-1.66;87.86
8894;BME280;4483;48.622;9.230;2023-03-04T06:04:00;98434.69;;;-1.68;87.61
8894;BME280;4483;48.622;9.230;2023-03-04T06:06:27;98433.84;;;-1.69;88.31
8894;BME280;4483;48.622;9.230;2023-03-04T06:08:53;98442.25;;;-1.70;87.60
8894;BME280;4483;48.622;9.230;2023-03-04T06:11:21;98447.28;;;-1.71;87.48
8894;BME280;4483;48.622;9.230;2023-03-04T06:13:48;98444.75;;;-1.71;88.27
8894;BME280;4483;48.622;9.230;2023-03-04T06:16:14;98445.63;;;-1.69;87.85
8894;BME280;4483;48.622;9.230;2023-03-04T06:18:41;98451.63;;;-1.63;87.77
8894;BME280;4483;48.622;9.230;2023-03-04T06:21:08;98456.00;;;-1.54;87.98
8894;BME280;4483;48.622;9.230;2023-03-04T06:23:34;98452.75;;;-1.46;87.57
8894;BME280;4483;48.622;9.230;2023-03-04T06:26:01;98449.47;;;-1.42;87.91
8894;BME280;4483;48.622;9.230;2023-03-04T06:28:30;98447.06;;;-1.34;87.66
8894;BME280;4483;48.622;9.230;2023-03-04T06:30:56;98446.28;;;-1.30;87.84
8894;BME280;4483;48.622;9.230;2023-03-04T06:33:23;98455.69;;;-1.20;87.54
8894;BME280;4483;48.622;9.230;2023-03-04T06:35:53;98455.09;;;-1.04;87.86
8894;BME280;4483;48.622;9.230;2023-03-04T06:38:20;98461.34;;;-0.79;87.36
8894;BME280;4483;48.622;9.230;2023-03-04T06:40:46;98466.75;;;-0.55;86.75
8894;BME280;4483;48.622;9.230;2023-03-04T06:43:13;98465.31;;;-0.35;86.23
8894;BME280;4483;48.622;9.230;2023-03-04T06:45:41;98467.19;;;-0.19;85.30
8894;BME280;4483;48.622;9.230;2023-03-04T06:48:08;98464.81;;;-0.04;85.14
8894;BME280;4483;48.622;9.230;2023-03-04T06:50:35;98473.50;;;0.19;85.14
8894;BME280;4483;48.622;9.230;2023-03-04T06:53:01;98472.94;;;0.46;85.47
8894;BME280;4483;48.622;9.230;2023-03-04T06:55:28;98476.53;;;0.73;84.79
8894;BME280;4483;48.622;9.230;2023-03-04T06:57:55;98469.91;;;0.93;84.25
8894;BME280;4483;48.622;9.230;2023-03-04T07:00:22;98471.75;;;1.16;83.26
8894;BME280;4483;48.622;9.230;2023-03-04T07:02:50;98471.91;;;1.40;82.92
8894;BME280;4483;48.622;9.230;2023-03-04T07:05:17;98478.78;;;1.65;81.96
8894;BME280;4483;48.622;9.230;2023-03-04T07:07:44;98473.84;;;1.93;81.17
8894;BME280;4483;48.622;9.230;2023-03-04T07:10:10;98473.91;;;2.22;81.19
8894;BME280;4483;48.622;9.230;2023-03-04T07:12:37;98480.75;;;2.55;81.20
8894;BME280;4483;48.622;9.230;2023-03-04T07:15:05;98474.84;;;2.87;81.02
8894;BME280;4483;48.622;9.230;2023-03-04T07:17:31;98477.34;;;3.21;79.87
8894;BME280;4483;48.622;9.230;2023-03-04T07:20:00;98473.06;;;3.39;79.14
8894;BME280;4483;48.622;9.230;2023-03-04T07:22:27;98481.53;;;3.49;78.35
8894;BME280;4483;48.622;9.230;2023-03-04T07:24:53;98473.97;;;3.28;76.50
8894;BME280;4483;48.622;9.230;2023-03-04T07:27:20;98485.00;;;3.08;76.70
8894;BME280;4483;48.622;9.230;2023-03-04T07:29:47;98490.97;;;2.82;76.52
8894;BME280;4483;48.622;9.230;2023-03-04T07:32:13;98496.88;;;2.60;77.13
8894;BME280;4483;48.622;9.230;2023-03-04T07:34:40;98492.63;;;2.45;76.84
8894;BME280;4483;48.622;9.230;2023-03-04T07:37:08;98502.75;;;2.35;77.58
8894;BME280;4483;48.622;9.230;2023-03-04T07:39:34;98502.75;;;2.23;77.68
8894;BME280;4483;48.622;9.230;2023-03-04T07:42:01;98506.09;;;2.07;77.81
8894;BME280;4483;48.622;9.230;2023-03-04T07:44:28;98500.09;;;1.91;78.35
8894;BME280;4483;48.622;9.230;2023-03-04T07:46:54;98508.50;;;1.76;78.30
8894;BME280;4483;48.622;9.230;2023-03-04T07:49:21;98508.44;;;1.63;78.68
8894;BME280;4483;48.622;9.230;2023-03-04T07:51:48;98509.22;;;1.53;79.17
8894;BME280;4483;48.622;9.230;2023-03-04T07:54:16;98505.81;;;1.49;79.84
8894;BME280;4483;48.622;9.230;2023-03-04T07:56:44;98508.31;;;1.42;80.50
8894;BME280;4483;48.622;9.230;2023-03-04T07:59:11;98507.44;;;1.38;80.59
8894;BME280;4483;48.622;9.230;2023-03-04T08:01:37;98517.59;;;1.35;80.61
8894;BME280;4483;48.622;9.230;2023-03-04T08:04:05;98512.50;;;1.34;81.52
8894;BME280;4483;48.622;9.230;2023-03-04T08:06:33;98517.59;;;1.34;82.02
8894;BME280;4483;48.622;9.230;2023-03-04T08:09:03;98521.00;;;1.39;82.00
8894;BME280;4483;48.622;9.230;2023-03-04T08:11:33;98520.16;;;1.40;82.08
8894;BME280;4483;48.622;9.230;2023-03-04T08:14:00;98519.28;;;1.38;82.06
8894;BME280;4483;48.622;9.230;2023-03-04T08:16:26;98518.47;;;1.42;82.67
8894;BME280;4483;48.622;9.230;2023-03-04T08:18:55;98523.56;;;1.45;82.75
8894;BME280;4483;48.622;9.230;2023-03-04T08:21:23;98529.53;;;1.48;82.76
8894;BME280;4483;48.622;9.230;2023-03-04T08:23:51;98527.81;;;1.50;83.52
8894;BME280;4483;48.622;9.230;2023-03-04T08:26:20;98532.06;;;1.53;83.67
8894;BME280;4483;48.622;9.230;2023-03-04T08:28:49;98527.81;;;1.50;83.75
8894;BME280;4483;48.622;9.230;2023-03-04T08:31:17;98528.72;;;1.54;83.31
8894;BME280;4483;48.622;9.230;2023-03-04T08:33:44;98532.94;;;1.52;84.33
8894;BME280;4483;48.622;9.230;2023-03-04T08:36:11;98533.78;;;1.54;84.19
8894;BME280;4483;48.622;9.230;2023-03-04T08:38:38;98532.13;;;1.62;84.86
8894;BME280;4483;48.622;9.230;2023-03-04T08:41:05;98544.00;;;1.66;85.13
8894;BME280;4483;48.622;9.230;2023-03-04T08:43:33;98544.88;;;1.66;85.02
8894;BME280;4483;48.622;9.230;2023-03-04T08:46:01;98548.28;;;1.68;85.13
8894;BME280;4483;48.622;9.230;2023-03-04T08:48:28;98550.81;;;1.70;85.00
8894;BME280;4483;48.622;9.230;2023-03-04T08:50:55;98549.97;;;1.71;85.25
8894;BME280;4483;48.622;9.230;2023-03-04T08:53:22;98553.34;;;1.68;85.78
8894;BME280;4483;48.622;9.230;2023-03-04T08:55:50;98542.31;;;1.66;86.52
8894;BME280;4483;48.622;9.230;2023-03-04T08:58:17;98549.94;;;1.66;85.56
8894;BME280;4483;48.622;9.230;2023-03-04T09:00:45;98544.88;;;1.71;85.74
8894;BME280;4483;48.622;9.230;2023-03-04T09:03:15;98555.91;;;1.70;86.35
8894;BME280;4483;48.622;9.230;2023-03-04T09:05:44;98549.09;;;1.70;86.04
8894;BME280;4483;48.622;9.230;2023-03-04T09:08:11;98553.34;;;1.71;86.17
8894;BME280;4483;48.622;9.230;2023-03-04T09:10:38;98553.34;;;1.71;86.47
8894;BME280;4483;48.622;9.230;2023-03-04T09:13:04;98553.34;;;1.68;87.34
8894;BME280;4483;48.622;9.230;2023-03-04T09:15:31;98548.22;;;1.62;87.84
8894;BME280;4483;48.622;9.230;2023-03-04T09:18:00;98552.44;;;1.63;86.60
8894;BME280;4483;48.622;9.230;2023-03-04T09:20:28;98554.16;;;1.66;87.73
8894;BME280;4483;48.622;9.230;2023-03-04T09:22:55;98555.03;;;1.68;86.79
8894;BME280;4483;48.622;9.230;2023-03-04T09:25:22;98551.66;;;1.72;86.93
8894;BME280;4483;48.622;9.230;2023-03-04T09:27:48;98554.22;;;1.78;87.19
8894;BME280;4483;48.622;9.230;2023-03-04T09:30:15;98553.44;;;1.85;86.98
8894;BME280;4483;48.622;9.230;2023-03-04T09:32:42;98553.44;;;1.89;86.81
8894;BME280;4483;48.622;9.230;2023-03-04T09:35:08;98565.34;;;1.96;86.57
8894;BME280;4483;48.622;9.230;2023-03-04T09:37:36;98562.78;;;1.95;86.82
8894;BME280;4483;48.622;9.230;2023-03-04T09:40:04;98557.72;;;1.95;87.74
8894;BME280;4483;48.622;9.230;2023-03-04T09:42:34;98562.81;;;2.01;87.42
8894;BME280;4483;48.622;9.230;2023-03-04T09:45:04;98557.75;;;2.07;87.19
8894;BME280;4483;48.622;9.230;2023-03-04T09:47:33;98560.31;;;2.09;86.61
8894;BME280;4483;48.622;9.230;2023-03-04T09:50:03;98556.09;;;2.12;86.99
8894;BME280;4483;48.622;9.230;2023-03-04T09:52:43;98556.91;;;2.11;86.74
8894;BME280;4483;48.622;9.230;2023-03-04T09:55:20;98559.47;;;2.10;87.36
8894;BME280;4483;48.622;9.230;2023-03-04T09:57:52;98552.66;;;2.07;87.22
8894;BME280;4483;48.622;9.230;2023-03-04T10:00:22;98557.78;;;2.15;87.17
8894;BME280;4483;48.622;9.230;2023-03-04T10:03:04;98551.88;;;2.19;87.57
8894;BME280;4483;48.622;9.230;2023-03-04T10:05:33;98555.28;;;2.24;86.81
8894;BME280;4483;48.622;9.230;2023-03-04T10:11:01;98552.75;;;2.31;87.22
8894;BME280;4483;48.622;9.230;2023-03-04T10:13:34;98561.25;;;2.35;86.76
8894;BME280;4483;48.622;9.230;2023-03-04T10:16:05;98556.16;;;2.33;86.54
8894;BME280;4483;48.622;9.230;2023-03-04T10:18:37;98550.22;;;2.33;86.56
8894;BME280;4483;48.622;9.230;2023-03-04T10:21:13;98546.88;;;2.40;87.10
8894;BME280;4483;48.622;9.230;2023-03-04T10:23:44;98551.09;;;2.39;86.82
8894;BME280;4483;48.622;9.230;2023-03-04T10:26:13;98552.78;;;2.39;87.11
8894;BME280;4483;48.622;9.230;2023-03-04T10:28:40;98555.31;;;2.40;86.80
8894;BME280;4483;48.622;9.230;2023-03-04T10:31:11;98549.38;;;2.38;86.67
8894;BME280;4483;48.622;9.230;2023-03-04T10:33:41;98543.44;;;2.35;86.14
8894;BME280;4483;48.622;9.230;2023-03-04T10:36:21;98550.25;;;2.39;86.73
8894;BME280;4483;48.622;9.230;2023-03-04T10:38:56;98548.56;;;2.42;86.85
8894;BME280;4483;48.622;9.230;2023-03-04T10:41:25;98550.25;;;2.48;86.83
8894;BME280;4483;48.622;9.230;2023-03-04T10:44:01;98547.75;;;2.55;86.80
8894;BME280;4483;48.622;9.230;2023-03-04T10:46:29;98552.00;;;2.59;86.66
8894;BME280;4483;48.622;9.230;2023-03-04T10:48:57;98549.44;;;2.64;86.35
8894;BME280;4483;48.622;9.230;2023-03-04T10:51:26;98544.38;;;2.68;86.35
8894;BME280;4483;48.622;9.230;2023-03-04T10:53:58;98534.22;;;2.74;86.17
8894;BME280;4483;48.622;9.230;2023-03-04T10:56:34;98538.47;;;2.83;85.67
8894;BME280;4483;48.622;9.230;2023-03-04T10:59:30;98537.59;;;2.91;85.77
8894;BME280;4483;48.622;9.230;2023-03-04T11:01:57;98528.28;;;2.98;85.54
8894;BME280;4483;48.622;9.230;2023-03-04T11:04:26;98532.53;;;3.06;85.22
8894;BME280;4483;48.622;9.230;2023-03-04T11:06:53;98531.66;;;3.15;84.61
8894;BME280;4483;48.622;9.230;2023-03-04T11:09:23;98519.81;;;3.22;84.92
8894;BME280;4483;48.622;9.230;2023-03-04T11:11:52;98506.22;;;3.29;84.53
8894;BME280;4483;48.622;9.230;2023-03-04T11:14:22;98512.13;;;3.40;84.19
8894;BME280;4483;48.622;9.230;2023-03-04T11:16:55;98509.59;;;3.46;83.97
8894;BME280;4483;48.622;9.230;2023-03-04T11:19:24;98510.41;;;3.49;83.81
8894;BME280;4483;48.622;9.230;2023-03-04T11:21:54;98502.75;;;3.57;83.84
8894;BME280;4483;48.622;9.230;2023-03-04T11:24:26;98502.75;;;3.60;83.10
8894;BME280;4483;48.622;9.230;2023-03-04T11:26:59;98503.56;;;3.65;82.95
8894;BME280;4483;48.622;9.230;2023-03-04T11:29:30;98499.31;;;3.73;82.38
8894;BME280;4483;48.622;9.230;2023-03-04T11:32:04;98494.16;;;3.86;82.77
8894;BME280;4483;48.622;9.230;2023-03-04T11:34:38;98487.28;;;4.05;82.50
8894;BME280;4483;48.622;9.230;2023-03-04T11:37:10;98480.47;;;4.07;81.50
8894;BME280;4483;48.622;9.230;2023-03-04T11:39:45;98488.13;;;4.10;81.23
8894;BME280;4483;48.622;9.230;2023-03-04T11:42:22;98490.69;;;4.10;80.18
8894;BME280;4483;48.622;9.230;2023-03-04T11:44:52;98490.69;;;4.10;79.77
8894;BME280;4483;48.622;9.230;2023-03-04T11:50:28;98484.69;;;4.16;78.96
8894;BME280;4483;48.622;9.230;2023-03-04T11:53:07;98480.41;;;4.16;78.42
8894;BME280;4483;48.622;9.230;2023-03-04T11:55:44;98471.06;;;4.18;78.23
8894;BME280;4483;48.622;9.230;2023-03-04T11:58:28;98471.06;;;4.18;76.93
8894;BME280;4483;48.622;9.230;2023-03-04T12:01:06;98465.97;;;4.18;77.85
8894;BME280;4483;48.622;9.230;2023-03-04T12:03:50;98456.56;;;4.23;78.07
8894;BME280;4483;48.622;9.230;2023-03-04T12:06:28;98452.28;;;4.31;78.24
8894;BME280;4483;48.622;9.230;2023-03-04T12:09:07;98457.28;;;4.43;78.21
8894;BME280;4483;48.622;9.230;2023-03-04T12:11:46;98448.75;;;4.52;77.48
8894;BME280;4483;48.622;9.230;2023-03-04T12:14:24;98434.25;;;4.55;77.38
8894;BME280;4483;48.622;9.230;2023-03-04T12:17:11;98438.47;;;4.62;76.78
8894;BME280;4483;48.622;9.230;2023-03-04T12:20:00;98435.88;;;4.65;75.99
8894;BME280;4483;48.622;9.230;2023-03-04T12:22:34;98431.63;;;4.64;76.90
8894;BME280;4483;48.622;9.230;2023-03-04T12:25:32;98430.78;;;4.64;75.80
8894;BME280;4483;48.622;9.230;2023-03-04T12:28:15;98429.06;;;4.67;76.26
8894;BME280;4483;48.622;9.230;2023-03-04T12:30:55;98421.34;;;4.73;76.12
8894;BME280;4483;48.622;9.230;2023-03-04T12:33:32;98412.81;;;4.79;75.87
8894;BME280;4483;48.622;9.230;2023-03-04T12:36:11;98408.56;;;4.79;75.22
8894;BME280;4483;48.622;9.230;2023-03-04T12:38:50;98400.81;;;4.85;75.46
8894;BME280;4483;48.622;9.230;2023-03-04T12:41:27;98397.28;;;5.01;75.38
8894;BME280;4483;48.622;9.230;2023-03-04T12:44:03;98400.56;;;5.13;74.29
8894;BME280;4483;48.622;9.230;2023-03-04T12:46:42;98393.66;;;5.24;73.79
8894;BME280;4483;48.622;9.230;2023-03-04T12:49:25;98389.22;;;5.38;72.46
8894;BME280;4483;48.622;9.230;2023-03-04T12:52:02;98388.94;;;5.62;71.12
8894;BME280;4483;48.622;9.230;2023-03-04T12:54:34;98384.31;;;5.91;71.75
8894;BME280;4483;48.622;9.230;2023-03-04T12:57:08;98372.00;;;6.17;71.13
8894;BME280;4483;48.622;9.230;2023-03-04T12:59:41;98368.13;;;6.48;68.38
8894;BME280;4483;48.622;9.230;2023-03-04T13:02:31;98370.47;;;6.60;67.05
8894;BME280;4483;48.622;9.230;2023-03-04T13:05:14;98369.44;;;6.70;67.48
8894;BME280;4483;48.622;9.230;2023-03-04T13:07:53;98368.97;;;6.97;67.48
8894;BME280;4483;48.622;9.230;2023-03-04T13:10:22;98360.34;;;7.01;66.62
8894;BME280;4483;48.622;9.230;2023-03-04T13:12:51;98361.13;;;7.06;61.55
8894;BME280;4483;48.622;9.230;2023-03-04T13:15:34;98367.16;;;7.02;64.74
8894;BME280;4483;48.622;9.230;2023-03-04T13:18:11;98359.69;;;6.90;63.48
8894;BME280;4483;48.622;9.230;2023-03-04T13:21:05;98355.69;;;6.74;62.80
8894;BME280;4483;48.622;9.230;2023-03-04T13:23:32;98345.59;;;6.67;63.47
8894;BME280;4483;48.622;9.230;2023-03-04T13:26:16;98355.97;;;6.61;62.88
8894;BME280;4483;48.622;9.230;2023-03-04T13:28:45;98349.91;;;6.63;63.19
8894;BME280;4483;48.622;9.230;2023-03-04T13:31:21;98354.13;;;7.14;63.42
8894;BME280;4483;48.622;9.230;2023-03-04T13:33:57;98351.38;;;7.24;61.92
8894;BME280;4483;48.622;9.230;2023-03-04T13:36:57;98350.47;;;7.26;61.90
8894;BME280;4483;48.622;9.230;2023-03-04T13:39:33;98351.50;;;7.18;62.11
8894;BME280;4483;48.622;9.230;2023-03-04T13:42:02;98344.97;;;7.03;61.24
8894;BME280;4483;48.622;9.230;2023-03-04T13:44:59;98346.91;;;6.89;60.84
8894;BME280;4483;48.622;9.230;2023-03-04T13:47:45;98354.06;;;6.72;61.42